Barbeau, MI (49710)

7:14 PM EDT on September 01, 2015 (GMT -0400)
Charlotte Beach | | Change Station
CLOSE
Current Station
Personal Weather Station
Location: Barbeau, MI
Elevation: 571 ft
Nearby Weather Stations

Elev 571 ft 46.31 °N, 84.22 °W | Updated 38 days ago

Partly Cloudy
Partly Cloudy
70 °F
Feels Like 70 °F
N
4
Wind Variable Wind from South
Gusts mph

Today
High -- | Low -- °F
--% Chance of Precip.
Yesterday
High -- | Low -- °F
Precip. -- in
6:56 AM 8:15 PM
Waning Gibbous, 85% visible
Pressure 29.96 in
Visibility 10.0 miles
Clouds Few 7000 ft
Dew Point 67 °F
Humidity 90%
Rainfall in
Snow Depth Not available.
UV 1 out of 12
Pollen 10.40 out of 12
Air Quality Not available.
Flu Activity Not available.
METAR KCIU 012255Z AUTO 21006KT 10SM FEW070 27/22 A2996 RMK AO1
Pressure 29.96 in
Visibility 10.0 miles
Clouds Few 7000 ft
Dew Point 67 °F
Humidity 90%
Rainfall in
Snow Depth Not available.
UV 1 out of 12
Pollen 10.40 out of 12
Air Quality Not available.
Flu Activity Not available.
METAR KCIU 012255Z AUTO 21006KT 10SM FEW070 27/22 A2996 RMK AO1
Nowcast | as of 7:00 PM EDT on September 1, 2015

At 8 PM...partly cloudy. Slight chance of thunderstorms. Temperature 77. Southwest winds 8 mph. At 10 PM...partly cloudy. Slight chance of thunderstorms. Temperature 73. Light winds. At 12 am...partly cloudy. Areas of fog. Temperature 70. Light winds. At 2 am...partly cloudy. Areas of fog. Temperature 67. Light winds.

×

10-Day Weather Forecast

×

Almanac

Astronomy

Sep. 01, 2015 Rise Set
Actual Time
Civil Twilight
Nautical Twilight
Astronomical Twilight
Moon
Length of Visible Light
Length of Day
Tomorrow will be .
, % of the Moon is Illuminated

Today's Extremes

State Highs State Lows

Community

WunderPhotos

Upload Photos

1,851,638 photos uploaded!

WunderBlogs® & News

Nearby

Air Quality

  Air Quality AQ Index Pollutant
Not available.

Snow Depth

Station Depth Elevation

Earthquake Activity

City Distance Mag. Time & Date
Minimum magnitude displayed is 2.5.

Coastal Water Temperatures

Place Temperature

Stations

Nearby Weather Stations

Station Location Temp. Windchill Dew Point Humidity Wind Precip. Elev Updated Type